Maplewood, Washington
Current Conditions -  °F | °C
As of 7:58 PM on Monday 20 Oct 2014 (Local Time) from KTCM Reporting Station
Broken Clouds Broken Clouds  
Wind Chill: 56°   Ceiling: 7500
Heat Index: 56°   Visibility: 10mi
Dew Point: 52°   Wind: 5mph
Humidity: 88%   Direction: 150°SSE
Pressure: 29.77"   Gusts: NA
Location:  47.1905°N, 122.328°W
Report Text: KTCM 210258Z AUTO 15004KT 10SM SCT065 BKN075 BKN090 13/11 A2977 RMK AO2 SLP085 T01310112
Loading
Personal Weather Stations






























Interactive Weather Map
Tropical Storm Tracking
New forecast layout! Learn more

10-Day Weather Forecast

Advertisements
Track Severe Weather on mobile